Airports Serbia Priština International Airport

Priština International Airport (BKPR / PRN)

Facts about Priština International Airport

Name Priština International Airport
City Pristina
Country Serbia
ICAO code BKPR
IATA code PRN
Elevation 545.2872 meters (1789 feet)

Weather

METAR

Metar data retrieved Friday, 19 July 2024 at 23:55 UTC (22 minutes ago)

BKPR 192330Z 06004KT CAVOK 22/18 Q1014 NOSIG

Live traffic

Navigraph Charts (account required)